createdAt,value
2024-04-17T00:01:23.917Z,37.59
2024-04-17T00:03:50.223Z,37.60
2024-04-17T00:06:16.405Z,37.64
2024-04-17T00:08:42.674Z,37.66
2024-04-17T00:11:09.138Z,37.65
2024-04-17T00:13:35.351Z,37.70
2024-04-17T00:16:03.812Z,37.70
2024-04-17T00:18:27.983Z,37.67
2024-04-17T00:20:54.300Z,37.70
2024-04-17T00:23:20.632Z,37.75
2024-04-17T00:25:47.154Z,37.67
2024-04-17T00:28:13.328Z,37.73
2024-04-17T00:30:39.737Z,37.79
2024-04-17T00:33:06.073Z,37.73
2024-04-17T00:35:32.392Z,37.74
2024-04-17T00:37:58.731Z,37.79
2024-04-17T00:40:24.982Z,37.84
2024-04-17T00:42:51.278Z,37.79
2024-04-17T00:45:17.624Z,37.80
2024-04-17T00:47:44.086Z,37.82
2024-04-17T00:50:10.252Z,37.80
2024-04-17T00:52:36.653Z,37.90
2024-04-17T00:55:02.872Z,37.84
2024-04-17T00:57:29.260Z,37.87
2024-04-17T00:59:55.600Z,37.87
2024-04-17T01:02:21.944Z,37.86
2024-04-17T01:04:48.314Z,37.88
2024-04-17T01:07:14.594Z,37.87
2024-04-17T01:09:40.923Z,37.95
2024-04-17T01:12:07.202Z,37.86
2024-04-17T01:14:33.597Z,37.91
2024-04-17T01:16:59.999Z,37.94
2024-04-17T01:19:26.279Z,37.97
2024-04-17T01:21:52.629Z,37.89
2024-04-17T01:24:18.924Z,37.95
2024-04-17T01:26:45.240Z,37.94
2024-04-17T01:29:11.549Z,37.98
2024-04-17T01:31:37.845Z,38.04
2024-04-17T01:34:04.242Z,37.96
2024-04-17T01:36:30.536Z,37.99
2024-04-17T01:38:56.868Z,37.98
2024-04-17T01:41:23.128Z,38.00
2024-04-17T01:43:49.563Z,37.99
2024-04-17T01:46:15.808Z,38.02
2024-04-17T01:48:42.051Z,38.05
2024-04-17T01:51:08.484Z,38.05
2024-04-17T01:53:34.782Z,38.06
2024-04-17T01:56:01.109Z,38.06
2024-04-17T01:58:27.398Z,38.02
2024-04-17T02:00:53.748Z,38.05
2024-04-17T02:03:20.224Z,38.05
2024-04-17T02:05:46.337Z,37.98
2024-04-17T02:08:12.788Z,38.05
2024-04-17T02:10:39.218Z,38.18
2024-04-17T02:13:05.519Z,38.22
2024-04-17T02:15:31.790Z,38.25
2024-04-17T02:17:58.233Z,38.22
2024-04-17T02:20:24.641Z,38.29
2024-04-17T02:22:51.018Z,38.30
2024-04-17T02:25:17.272Z,38.29
2024-04-17T02:27:43.556Z,38.29
2024-04-17T02:30:09.952Z,38.30
2024-04-17T02:32:36.359Z,38.27
2024-04-17T02:35:02.638Z,38.27
2024-04-17T02:37:28.996Z,38.24
2024-04-17T02:39:55.253Z,38.25
2024-04-17T02:42:21.624Z,38.27
2024-04-17T02:44:47.915Z,38.28
2024-04-17T02:47:14.261Z,38.28
2024-04-17T02:49:40.522Z,38.26
2024-04-17T02:52:06.763Z,38.22
2024-04-17T02:54:33.180Z,38.22
2024-04-17T02:56:59.640Z,38.20
2024-04-17T02:59:25.940Z,38.21
2024-04-17T03:01:52.438Z,38.16
2024-04-17T03:04:18.544Z,38.15
2024-04-17T03:06:44.810Z,38.16
2024-04-17T03:09:13.070Z,38.10
2024-04-17T03:11:37.532Z,38.05
2024-04-17T03:14:03.924Z,38.03
2024-04-17T03:16:30.222Z,37.99
2024-04-17T03:18:56.517Z,37.95
2024-04-17T03:21:22.785Z,37.93
2024-04-17T03:23:49.077Z,37.92
2024-04-17T03:26:15.478Z,37.89
2024-04-17T03:28:41.780Z,37.86
2024-04-17T03:31:08.034Z,37.86
2024-04-17T03:33:34.540Z,37.84
2024-04-17T03:36:00.817Z,37.77
2024-04-17T03:38:27.126Z,37.77
2024-04-17T03:40:53.540Z,37.70
2024-04-17T03:43:19.794Z,37.64
2024-04-17T03:45:46.088Z,37.65
2024-04-17T03:48:12.502Z,37.61
2024-04-17T03:50:38.876Z,37.61
2024-04-17T03:53:05.146Z,37.60
2024-04-17T03:55:31.547Z,37.56
2024-04-17T03:57:58.650Z,37.54
2024-04-17T04:00:24.115Z,37.58
2024-04-17T04:02:50.482Z,37.63
2024-04-17T04:05:16.685Z,37.63
2024-04-17T04:07:43.074Z,37.71
2024-04-17T04:10:09.274Z,37.74
2024-04-17T04:12:35.657Z,37.72
2024-04-17T04:15:01.983Z,37.66
2024-04-17T04:17:28.300Z,39.83
2024-04-17T04:19:55.045Z,37.98
2024-04-17T04:22:21.521Z,37.91
2024-04-17T04:24:47.719Z,37.79
2024-04-17T04:27:14.022Z,37.77
2024-04-17T04:29:40.383Z,37.83
2024-04-17T04:32:06.775Z,37.86
2024-04-17T04:34:33.008Z,37.90
2024-04-17T04:36:59.374Z,37.95
2024-04-17T04:39:25.725Z,38.00
2024-04-17T04:41:52.017Z,38.12
2024-04-17T04:44:18.377Z,38.12
2024-04-17T04:46:44.730Z,38.16
2024-04-17T04:49:10.994Z,38.23
2024-04-17T04:51:37.280Z,38.26
2024-04-17T04:54:03.542Z,38.34
2024-04-17T04:56:29.852Z,38.45
2024-04-17T04:58:56.323Z,38.51
2024-04-17T05:01:22.608Z,38.59
2024-04-17T05:03:48.835Z,38.68
2024-04-17T05:06:15.107Z,38.75
2024-04-17T05:08:41.422Z,38.85
2024-04-17T05:11:07.779Z,38.85
2024-04-17T05:13:33.994Z,38.94
2024-04-17T05:16:00.379Z,38.96
2024-04-17T05:18:26.759Z,39.08
2024-04-17T05:20:53.020Z,39.10
2024-04-17T05:23:19.325Z,39.23
2024-04-17T05:25:45.650Z,39.23
2024-04-17T05:28:11.885Z,39.33
2024-04-17T05:30:38.187Z,39.32
2024-04-17T05:33:04.711Z,39.45
2024-04-17T05:35:30.938Z,39.49
2024-04-17T05:37:57.425Z,39.51
2024-04-17T05:40:23.645Z,39.66
2024-04-17T05:42:49.937Z,39.60
2024-04-17T05:45:16.337Z,39.73
2024-04-17T05:47:42.711Z,39.79
2024-04-17T05:50:09.532Z,39.81
2024-04-17T05:52:35.274Z,39.79
2024-04-17T05:55:01.529Z,39.78
2024-04-17T05:57:27.810Z,39.77
2024-04-17T05:59:54.120Z,40.00
2024-04-17T06:02:20.407Z,40.01
2024-04-17T06:04:46.829Z,40.07
2024-04-17T06:07:13.126Z,40.07
2024-04-17T06:09:39.547Z,40.03
2024-04-17T06:12:05.843Z,40.12
2024-04-17T06:14:32.289Z,40.07
2024-04-17T06:16:58.570Z,40.13
2024-04-17T06:19:24.919Z,40.18
2024-04-17T06:21:51.156Z,40.30
2024-04-17T06:24:17.451Z,40.34
2024-04-17T06:26:43.768Z,40.38
2024-04-17T06:29:10.108Z,40.38
2024-04-17T06:31:36.484Z,40.42
2024-04-17T06:34:02.666Z,40.52
2024-04-17T06:36:28.960Z,40.54
2024-04-17T06:38:55.341Z,40.54
2024-04-17T06:41:21.590Z,40.67
2024-04-17T06:43:47.906Z,40.82
2024-04-17T06:46:14.309Z,40.87
2024-04-17T06:48:40.651Z,40.92
2024-04-17T06:51:06.963Z,40.94
2024-04-17T06:53:33.315Z,41.00
2024-04-17T06:55:59.793Z,40.95
2024-04-17T06:58:26.003Z,40.85
2024-04-17T07:00:52.402Z,40.91
2024-04-17T07:03:18.825Z,41.01
2024-04-17T07:05:45.075Z,41.19
2024-04-17T07:08:11.414Z,41.28
2024-04-17T07:10:37.868Z,41.28
2024-04-17T07:13:04.276Z,41.53
2024-04-17T07:15:30.564Z,41.58
2024-04-17T07:17:56.897Z,41.70
2024-04-17T07:20:23.250Z,41.67
2024-04-17T07:22:49.724Z,41.55
2024-04-17T07:25:17.346Z,41.48
2024-04-17T07:27:42.289Z,41.57
2024-04-17T07:30:08.625Z,41.63
2024-04-17T07:32:35.080Z,41.94
2024-04-17T07:35:03.527Z,41.54
2024-04-17T07:37:27.635Z,41.49
2024-04-17T07:39:54.973Z,41.46
2024-04-17T07:42:20.178Z,41.51
2024-04-17T07:44:46.459Z,41.38
2024-04-17T07:47:12.823Z,41.40
2024-04-17T07:49:39.266Z,41.55
2024-04-17T07:52:05.660Z,41.65
2024-04-17T07:54:31.966Z,41.85
2024-04-17T07:56:58.257Z,41.74
2024-04-17T07:59:24.664Z,41.82
2024-04-17T08:01:51.231Z,41.88
2024-04-17T08:04:17.563Z,41.73
2024-04-17T08:06:43.851Z,41.87
2024-04-17T08:09:10.320Z,41.83
2024-04-17T08:11:38.327Z,41.73
2024-04-17T08:14:03.007Z,41.80
2024-04-17T08:16:29.552Z,41.76
2024-04-17T08:18:55.942Z,41.77
2024-04-17T08:21:22.319Z,41.77
2024-04-17T08:23:48.647Z,41.78
2024-04-17T08:26:14.969Z,41.76
2024-04-17T08:28:41.245Z,41.98
2024-04-17T08:31:07.595Z,42.06
2024-04-17T08:33:34.116Z,42.04
2024-04-17T08:36:00.262Z,42.02
2024-04-17T08:38:26.764Z,42.07
2024-04-17T08:40:53.145Z,42.21
2024-04-17T08:43:19.570Z,42.21
2024-04-17T08:45:50.382Z,42.27
2024-04-17T08:48:12.388Z,42.23
2024-04-17T08:50:38.554Z,42.32
2024-04-17T08:53:04.859Z,42.38
2024-04-17T08:55:31.219Z,42.48
2024-04-17T08:57:57.704Z,42.59
2024-04-17T09:00:24.141Z,42.68
2024-04-17T09:02:50.544Z,42.66
2024-04-17T09:05:16.939Z,42.67
2024-04-17T09:07:43.441Z,42.64
2024-04-17T09:10:09.655Z,42.74
2024-04-17T09:12:35.942Z,42.70
2024-04-17T09:15:02.394Z,42.74
2024-04-17T09:17:30.406Z,42.71
2024-04-17T09:19:55.314Z,42.71
2024-04-17T09:22:21.656Z,42.76
2024-04-17T09:24:47.950Z,42.81
2024-04-17T09:27:14.263Z,42.81
2024-04-17T09:29:40.642Z,42.77
2024-04-17T09:32:07.114Z,42.65
2024-04-17T09:34:33.578Z,42.71
2024-04-17T09:36:59.704Z,42.80
2024-04-17T09:39:26.086Z,42.76
2024-04-17T09:41:52.382Z,42.74
2024-04-17T09:44:18.753Z,42.84
2024-04-17T09:46:45.266Z,42.76
2024-04-17T09:49:11.476Z,42.89
2024-04-17T09:51:37.777Z,42.78
2024-04-17T09:54:04.201Z,43.12
2024-04-17T09:56:30.637Z,43.12
2024-04-17T09:59:04.298Z,42.97
2024-04-17T10:01:23.290Z,42.88
2024-04-17T10:03:49.803Z,43.12
2024-04-17T10:06:16.051Z,43.34
2024-04-17T10:08:42.461Z,43.21
2024-04-17T10:11:08.901Z,43.23
2024-04-17T10:13:35.071Z,43.40
2024-04-17T10:16:02.203Z,43.51
2024-04-17T10:18:29.006Z,43.55
2024-04-17T10:20:54.960Z,43.46
2024-04-17T10:23:21.448Z,43.45
2024-04-17T10:25:47.763Z,43.63
2024-04-17T10:28:16.268Z,43.51
2024-04-17T10:30:40.344Z,43.59
2024-04-17T10:33:06.779Z,43.57
2024-04-17T10:35:32.988Z,43.49
2024-04-17T10:37:59.371Z,43.33
2024-04-17T10:40:25.562Z,43.15
2024-04-17T10:42:51.983Z,43.08
2024-04-17T10:45:18.503Z,43.05
2024-04-17T10:47:44.818Z,43.04
2024-04-17T10:50:13.421Z,42.90
2024-04-17T10:52:37.481Z,43.01
2024-04-17T10:55:03.980Z,43.00
2024-04-17T10:57:30.214Z,43.04
2024-04-17T10:59:56.610Z,42.95
2024-04-17T11:02:23.031Z,42.99
2024-04-17T11:04:49.295Z,42.93
2024-04-17T11:07:15.697Z,42.79
2024-04-17T11:09:42.131Z,42.77
2024-04-17T11:12:08.459Z,42.57
2024-04-17T11:14:34.895Z,42.82
2024-04-17T11:17:01.399Z,42.63
2024-04-17T11:19:27.698Z,42.63
2024-04-17T11:21:53.860Z,42.50
2024-04-17T11:24:20.190Z,42.51
2024-04-17T11:26:46.650Z,42.44
2024-04-17T11:29:13.012Z,42.52
2024-04-17T11:31:39.443Z,42.53
2024-04-17T11:34:05.848Z,42.57
2024-04-17T11:36:32.116Z,42.50
2024-04-17T11:38:58.485Z,42.62
2024-04-17T11:41:24.779Z,42.57
2024-04-17T11:43:51.254Z,42.43
2024-04-17T11:46:17.652Z,42.36
2024-04-17T11:48:44.018Z,42.39
2024-04-17T11:51:10.246Z,42.24
2024-04-17T11:53:36.655Z,42.12
2024-04-17T11:56:03.355Z,42.23
2024-04-17T11:58:29.380Z,41.97
2024-04-17T12:00:55.672Z,41.79
2024-04-17T12:03:22.320Z,41.78
2024-04-17T12:05:51.721Z,41.74
2024-04-17T12:08:14.665Z,41.58
2024-04-17T12:10:41.071Z,41.64
2024-04-17T12:13:07.460Z,41.44
2024-04-17T12:15:33.817Z,41.19
2024-04-17T12:18:00.123Z,41.24
2024-04-17T12:20:26.391Z,41.26
2024-04-17T12:22:52.885Z,41.17
2024-04-17T12:25:19.341Z,41.12
2024-04-17T12:27:45.600Z,41.17
2024-04-17T12:30:12.156Z,41.18
2024-04-17T12:32:38.448Z,40.91
2024-04-17T12:35:05.010Z,41.09
2024-04-17T12:37:31.211Z,40.91
2024-04-17T12:39:57.568Z,40.79
2024-04-17T12:42:23.984Z,40.66
2024-04-17T12:44:50.416Z,40.60
2024-04-17T12:47:16.856Z,40.49
2024-04-17T12:49:43.140Z,40.42
2024-04-17T12:52:09.577Z,40.47
2024-04-17T12:54:35.948Z,40.13
2024-04-17T12:57:02.376Z,40.13
2024-04-17T12:59:28.793Z,40.12
2024-04-17T13:01:55.113Z,40.28
2024-04-17T13:04:21.594Z,40.15
2024-04-17T13:06:48.198Z,40.24
2024-04-17T13:09:14.547Z,39.93
2024-04-17T13:11:41.007Z,39.79
2024-04-17T13:14:07.372Z,39.78
2024-04-17T13:16:34.849Z,39.75
2024-04-17T13:18:59.917Z,39.99
2024-04-17T13:21:26.294Z,39.73
2024-04-17T13:23:52.762Z,39.81
2024-04-17T13:26:20.947Z,39.82
2024-04-17T13:28:45.347Z,39.87
2024-04-17T13:31:11.548Z,39.74
2024-04-17T13:33:38.142Z,39.79
2024-04-17T13:36:04.113Z,39.69
2024-04-17T13:38:30.478Z,39.80
2024-04-17T13:40:56.824Z,39.60
2024-04-17T13:43:23.035Z,39.59
2024-04-17T13:45:49.296Z,39.54
2024-04-17T13:48:15.710Z,39.32
2024-04-17T13:50:41.895Z,39.40
2024-04-17T13:53:08.349Z,39.46
2024-04-17T13:55:34.642Z,39.58
2024-04-17T13:58:01.730Z,39.24
2024-04-17T14:00:27.208Z,39.08
2024-04-17T14:02:53.502Z,39.10
2024-04-17T14:05:19.840Z,39.16
2024-04-17T14:07:46.134Z,39.35
2024-04-17T14:10:12.459Z,39.26
2024-04-17T14:12:38.867Z,39.25
2024-04-17T14:15:05.339Z,39.15
2024-04-17T14:17:31.626Z,39.37
2024-04-17T14:19:57.854Z,39.39
2024-04-17T14:22:24.163Z,39.26
2024-04-17T14:24:50.603Z,39.09
2024-04-17T14:27:16.902Z,39.06
2024-04-17T14:29:43.156Z,39.07
2024-04-17T14:32:09.486Z,39.20
2024-04-17T14:34:35.833Z,39.21
2024-04-17T14:37:02.265Z,39.19
2024-04-17T14:39:28.536Z,39.07
2024-04-17T14:41:54.996Z,39.31
2024-04-17T14:44:21.207Z,39.38
2024-04-17T14:46:47.569Z,39.12
2024-04-17T14:49:13.963Z,39.05
2024-04-17T14:51:40.199Z,39.15
2024-04-17T14:54:06.627Z,39.17
2024-04-17T14:56:32.854Z,39.14
2024-04-17T14:58:59.260Z,39.02
2024-04-17T15:01:25.600Z,39.03
2024-04-17T15:03:52.012Z,38.89
2024-04-17T15:06:18.344Z,39.02
2024-04-17T15:08:44.670Z,38.92
2024-04-17T15:11:11.020Z,38.89
2024-04-17T15:13:37.424Z,38.83
2024-04-17T15:16:03.742Z,38.78
2024-04-17T15:18:30.155Z,38.83
2024-04-17T15:20:56.313Z,38.81
2024-04-17T15:23:22.646Z,38.73
2024-04-17T15:25:48.974Z,38.70
2024-04-17T15:28:15.283Z,38.72
2024-04-17T15:30:41.700Z,38.71
2024-04-17T15:33:08.018Z,38.66
2024-04-17T15:35:34.411Z,38.69
2024-04-17T15:38:00.741Z,38.63
2024-04-17T15:40:27.004Z,38.59
2024-04-17T15:42:53.356Z,38.61
2024-04-17T15:45:19.671Z,38.58
2024-04-17T15:47:46.066Z,38.50
2024-04-17T15:50:12.284Z,38.47
2024-04-17T15:52:38.577Z,38.44
2024-04-17T15:55:04.948Z,38.45
2024-04-17T15:57:31.240Z,38.43
2024-04-17T15:59:57.501Z,38.43
2024-04-17T16:02:23.867Z,38.39
2024-04-17T16:04:50.126Z,38.41
2024-04-17T16:07:16.409Z,38.38
2024-04-17T16:09:42.860Z,38.39
2024-04-17T16:12:09.015Z,38.34
2024-04-17T16:14:35.387Z,38.35
2024-04-17T16:17:02.745Z,38.36
2024-04-17T16:19:27.958Z,38.31
2024-04-17T16:21:54.247Z,38.35
2024-04-17T16:24:20.566Z,38.33
2024-04-17T16:26:46.834Z,38.34
2024-04-17T16:29:13.164Z,38.35
2024-04-17T16:31:39.505Z,38.35
2024-04-17T16:34:05.974Z,38.29
2024-04-17T16:36:32.208Z,38.31
2024-04-17T16:38:58.514Z,38.24
2024-04-17T16:41:24.786Z,38.24
2024-04-17T16:43:51.181Z,38.23
2024-04-17T16:46:17.562Z,38.24
2024-04-17T16:48:44.098Z,38.18
2024-04-17T16:51:10.316Z,38.13
2024-04-17T16:53:36.505Z,38.19
2024-04-17T16:56:02.755Z,38.11
2024-04-17T16:58:29.167Z,38.16
2024-04-17T17:00:55.607Z,38.14
2024-04-17T17:03:21.909Z,38.16
2024-04-17T17:05:48.027Z,38.15
2024-04-17T17:10:56.632Z,38.07
2024-04-17T17:13:23.007Z,38.07
2024-04-17T17:15:49.393Z,38.13
2024-04-17T17:18:15.920Z,38.08
2024-04-17T17:20:42.113Z,38.08
2024-04-17T17:23:08.435Z,38.04
2024-04-17T17:25:34.730Z,38.03
2024-04-17T17:28:01.038Z,38.05
2024-04-17T17:30:27.449Z,38.03
2024-04-17T17:32:53.763Z,38.04
2024-04-17T17:35:20.020Z,38.06
2024-04-17T17:37:49.097Z,38.00
2024-04-17T17:40:15.463Z,38.01
2024-04-17T17:42:41.878Z,38.00
2024-04-17T17:45:08.003Z,38.05
2024-04-17T17:47:34.475Z,38.04
2024-04-17T17:50:00.702Z,38.02
2024-04-17T17:52:27.066Z,37.99
2024-04-17T17:54:53.340Z,38.02
2024-04-17T17:57:19.757Z,38.02
2024-04-17T17:59:46.067Z,38.06
2024-04-17T18:02:12.540Z,38.02
2024-04-17T18:04:38.995Z,38.01
2024-04-17T18:07:05.264Z,38.07
2024-04-17T18:09:31.725Z,38.12
2024-04-17T18:11:57.897Z,38.12
2024-04-17T18:14:24.169Z,38.13
2024-04-17T18:16:50.595Z,38.14
2024-04-17T18:19:17.035Z,38.16
2024-04-17T18:21:43.237Z,38.18
2024-04-17T18:24:09.609Z,38.21
2024-04-17T18:26:36.631Z,38.24
2024-04-17T18:29:02.384Z,38.27
2024-04-17T18:31:28.675Z,38.27
2024-04-17T18:33:55.285Z,38.33
2024-04-17T18:36:23.562Z,38.27
2024-04-17T18:38:47.699Z,38.36
2024-04-17T18:41:13.985Z,38.39
2024-04-17T18:43:40.259Z,38.31
2024-04-17T18:46:06.672Z,38.36
2024-04-17T18:48:33.080Z,38.39
2024-04-17T18:50:59.334Z,38.39
2024-04-17T18:53:25.771Z,38.40
2024-04-17T18:55:52.068Z,38.47
2024-04-17T18:58:18.423Z,38.45
2024-04-17T19:00:44.775Z,38.48
2024-04-17T19:03:11.112Z,38.49
2024-04-17T19:05:37.528Z,38.54
2024-04-17T19:08:03.798Z,38.54
2024-04-17T19:10:30.194Z,38.51
2024-04-17T19:12:56.624Z,38.57
2024-04-17T19:15:22.974Z,38.57
2024-04-17T19:17:49.263Z,38.54
2024-04-17T19:20:15.754Z,38.55
2024-04-17T19:22:42.002Z,38.58
2024-04-17T19:25:08.310Z,38.58
2024-04-17T19:27:34.739Z,38.53
2024-04-17T19:30:05.975Z,38.63
2024-04-17T19:32:27.410Z,38.63
2024-04-17T19:34:53.630Z,38.63
2024-04-17T19:37:20.027Z,38.59
2024-04-17T19:39:46.345Z,38.62
2024-04-17T19:42:32.240Z,38.64
2024-04-17T19:44:56.325Z,38.67
2024-04-17T19:47:22.637Z,38.72
2024-04-17T19:49:48.981Z,38.67
2024-04-17T19:52:15.304Z,38.70
2024-04-17T19:54:41.667Z,38.72
2024-04-17T19:57:07.999Z,38.75
2024-04-17T19:59:35.758Z,38.74
2024-04-17T20:02:00.730Z,38.78
2024-04-17T20:04:27.122Z,38.80
2024-04-17T20:06:53.288Z,38.77
2024-04-17T20:09:19.533Z,38.80
2024-04-17T20:11:45.863Z,38.80
2024-04-17T20:14:12.198Z,38.78
2024-04-17T20:16:38.523Z,38.83
2024-04-17T20:19:04.902Z,38.85
2024-04-17T20:21:31.200Z,38.84
2024-04-17T20:23:57.488Z,38.89
2024-04-17T20:26:23.847Z,38.88
2024-04-17T20:28:57.340Z,38.91
2024-04-17T20:31:16.612Z,38.83
2024-04-17T20:33:43.026Z,38.83
2024-04-17T20:36:09.236Z,38.80
2024-04-17T20:38:35.488Z,38.80
2024-04-17T20:41:01.823Z,38.79
2024-04-17T20:43:28.179Z,38.82
2024-04-17T20:45:54.451Z,38.84
2024-04-17T20:48:20.867Z,38.79
2024-04-17T20:50:47.154Z,38.84
2024-04-17T20:53:13.419Z,38.87
2024-04-17T20:55:39.821Z,38.87
2024-04-17T20:58:06.133Z,38.86
2024-04-17T21:00:32.409Z,38.81
2024-04-17T21:02:58.795Z,38.81
2024-04-17T21:05:24.965Z,38.82
2024-04-17T21:07:51.260Z,38.84
2024-04-17T21:10:17.699Z,38.81
2024-04-17T21:12:44.087Z,38.84
2024-04-17T21:15:10.362Z,38.83
2024-04-17T21:17:36.650Z,38.84
2024-04-17T21:20:02.923Z,38.83
2024-04-17T21:22:29.263Z,38.82
2024-04-17T21:24:55.530Z,38.81
2024-04-17T21:27:21.850Z,38.81
2024-04-17T21:29:48.115Z,38.78
2024-04-17T21:32:14.521Z,38.79
2024-04-17T21:34:40.783Z,38.84
2024-04-17T21:37:07.210Z,38.85
2024-04-17T21:39:33.477Z,38.85
2024-04-17T21:41:59.733Z,38.87
2024-04-17T21:44:26.014Z,38.80
2024-04-17T21:46:52.291Z,38.79
2024-04-17T21:49:18.621Z,38.82
2024-04-17T21:51:44.918Z,38.80
2024-04-17T21:54:11.207Z,38.80
2024-04-17T21:56:37.407Z,38.77
2024-04-17T21:59:03.824Z,38.75
2024-04-17T22:01:30.161Z,38.74
2024-04-17T22:03:56.454Z,38.71
2024-04-17T22:06:22.733Z,38.73
2024-04-17T22:08:49.039Z,38.70
2024-04-17T22:11:15.333Z,38.71
2024-04-17T22:13:41.549Z,38.72
2024-04-17T22:16:07.826Z,38.69
2024-04-17T22:18:34.185Z,38.67
2024-04-17T22:21:00.518Z,38.65
2024-04-17T22:23:26.823Z,38.68
2024-04-17T22:25:53.143Z,38.65
2024-04-17T22:28:19.471Z,38.64
2024-04-17T22:30:45.838Z,38.64
2024-04-17T22:33:12.213Z,38.65
2024-04-17T22:35:38.467Z,38.61
2024-04-17T22:38:04.803Z,38.63
2024-04-17T22:40:31.179Z,38.58
2024-04-17T22:42:57.474Z,38.63
2024-04-17T22:45:23.732Z,38.66
2024-04-17T22:47:51.011Z,38.71
2024-04-17T22:50:16.466Z,38.67
2024-04-17T22:52:42.767Z,38.66
2024-04-17T22:55:09.042Z,38.66
2024-04-17T22:57:35.534Z,38.66
2024-04-17T23:00:01.741Z,38.66
2024-04-17T23:02:28.181Z,38.63
2024-04-17T23:04:54.437Z,38.60
2024-04-17T23:07:20.767Z,38.62
2024-04-17T23:09:47.144Z,38.60
2024-04-17T23:12:13.484Z,38.56
2024-04-17T23:14:39.773Z,38.58
2024-04-17T23:17:06.043Z,38.52
2024-04-17T23:19:32.428Z,38.51
2024-04-17T23:21:58.757Z,38.50
2024-04-17T23:24:25.078Z,38.51
2024-04-17T23:26:51.422Z,38.50
2024-04-17T23:29:17.754Z,38.50
2024-04-17T23:34:26.394Z,38.46
2024-04-17T23:36:52.704Z,38.44
2024-04-17T23:39:19.099Z,38.41
2024-04-17T23:41:45.315Z,38.41
2024-04-17T23:44:11.607Z,38.40
2024-04-17T23:46:38.042Z,38.39
2024-04-17T23:49:04.231Z,38.35
2024-04-17T23:51:30.643Z,38.33
2024-04-17T23:53:56.893Z,38.28
2024-04-17T23:56:23.271Z,38.30
2024-04-17T23:58:49.710Z,38.29
